createdAt,value
2022-11-29T00:03:01.181Z,27.80
2022-11-29T00:06:09.306Z,28.53
2022-11-29T00:09:15.037Z,28.30
2022-11-29T00:12:18.761Z,30.07
2022-11-29T00:15:27.226Z,28.97
2022-11-29T00:18:30.938Z,31.60
2022-11-29T00:21:34.642Z,33.63
2022-11-29T00:24:39.738Z,34.90
2022-11-29T00:27:43.346Z,41.77
2022-11-29T00:30:47.338Z,36.93
2022-11-29T00:33:52.354Z,39.70
2022-11-29T00:36:56.081Z,35.43
2022-11-29T00:40:01.254Z,34.33
2022-11-29T00:43:04.919Z,34.17
2022-11-29T00:46:09.524Z,30.70
2022-11-29T00:49:13.342Z,33.37
2022-11-29T00:52:16.965Z,31.47
2022-11-29T00:55:22.185Z,35.00
2022-11-29T00:58:25.798Z,30.07
2022-11-29T01:01:29.502Z,31.40
2022-11-29T01:04:33.178Z,28.00
2022-11-29T01:07:36.876Z,29.93
2022-11-29T01:10:43.071Z,33.73
2022-11-29T01:13:47.437Z,30.53
2022-11-29T01:16:51.052Z,29.20
2022-11-29T01:19:54.911Z,32.10
2022-11-29T01:22:58.768Z,28.27
2022-11-29T01:26:06.895Z,29.70
2022-11-29T01:29:14.433Z,33.03
2022-11-29T01:32:18.062Z,27.53
2022-11-29T01:35:21.694Z,34.63
2022-11-29T01:38:25.293Z,27.23
2022-11-29T01:41:33.277Z,27.20
2022-11-29T01:45:06.708Z,28.87
2022-11-29T01:48:11.680Z,33.73
2022-11-29T01:51:16.081Z,29.17
2022-11-29T01:54:21.311Z,29.37
2022-11-29T01:57:27.758Z,30.53
2022-11-29T02:00:31.578Z,29.60
2022-11-29T02:03:35.284Z,31.37
2022-11-29T02:06:40.825Z,33.17
2022-11-29T02:09:44.580Z,31.53
2022-11-29T02:13:02.942Z,33.97
2022-11-29T02:16:16.934Z,35.40
2022-11-29T02:20:07.148Z,37.03
2022-11-29T02:24:13.458Z,37.40
2022-11-29T02:28:22.210Z,44.00
2022-11-29T02:32:08.731Z,42.17
2022-11-29T02:35:36.851Z,34.40
2022-11-29T02:39:12.661Z,41.87
2022-11-29T02:42:56.855Z,41.80
2022-11-29T02:46:20.013Z,37.20
2022-11-29T02:49:53.336Z,33.00
2022-11-29T02:53:10.698Z,30.77
2022-11-29T02:56:28.349Z,35.50
2022-11-29T03:00:00.473Z,30.37
2022-11-29T03:03:18.167Z,36.47
2022-11-29T03:06:34.745Z,34.50
2022-11-29T03:09:45.432Z,31.30
2022-11-29T03:12:54.047Z,33.83
2022-11-29T03:16:10.704Z,33.80
2022-11-29T03:19:37.906Z,31.50
2022-11-29T03:22:53.377Z,33.43
2022-11-29T03:26:08.731Z,32.20
2022-11-29T03:29:28.101Z,36.80
2022-11-29T03:32:43.659Z,34.00
2022-11-29T03:35:57.868Z,34.93
2022-11-29T03:39:09.030Z,31.37
2022-11-29T03:42:22.951Z,33.60
2022-11-29T03:45:34.002Z,30.00
2022-11-29T03:48:45.977Z,32.87
2022-11-29T03:52:04.126Z,36.70
2022-11-29T03:55:31.633Z,28.80
2022-11-29T03:58:55.675Z,34.20
2022-11-29T04:02:50.717Z,31.93
2022-11-29T04:06:22.837Z,35.00
2022-11-29T04:09:53.203Z,35.63
2022-11-29T04:13:29.204Z,39.13
2022-11-29T04:17:28.932Z,38.20
2022-11-29T04:21:26.403Z,37.50
2022-11-29T04:25:07.355Z,39.23
2022-11-29T04:29:01.342Z,38.17
2022-11-29T04:32:58.291Z,37.37
2022-11-29T04:36:51.433Z,37.30
2022-11-29T04:40:27.041Z,38.40
2022-11-29T04:44:10.503Z,35.53
2022-11-29T04:47:44.020Z,42.43
2022-11-29T04:51:05.712Z,44.67
2022-11-29T04:54:21.898Z,37.50
2022-11-29T04:57:38.397Z,33.80
2022-11-29T05:00:56.526Z,35.40
2022-11-29T05:04:15.061Z,36.73
2022-11-29T05:07:33.041Z,34.73
2022-11-29T05:10:49.547Z,32.07
2022-11-29T05:14:03.165Z,32.67
2022-11-29T05:17:34.703Z,35.03
2022-11-29T05:20:54.149Z,32.33
2022-11-29T05:24:18.863Z,31.70
2022-11-29T05:27:39.794Z,35.93
2022-11-29T05:31:19.859Z,31.47
2022-11-29T05:34:46.821Z,35.93
2022-11-29T05:37:57.633Z,36.43
2022-11-29T05:41:24.520Z,35.70
2022-11-29T05:44:39.166Z,31.97
2022-11-29T05:47:52.125Z,35.67
2022-11-29T05:51:18.121Z,35.37
2022-11-29T05:54:46.443Z,35.03
2022-11-29T05:58:17.799Z,33.87
2022-11-29T06:01:29.977Z,37.63
2022-11-29T06:04:59.910Z,47.03
2022-11-29T06:08:12.322Z,47.47
2022-11-29T06:11:25.859Z,57.17
2022-11-29T06:14:55.491Z,97.67
2022-11-29T06:18:18.398Z,48.97
2022-11-29T06:21:39.143Z,39.00
2022-11-29T06:25:17.252Z,172.83
2022-11-29T06:28:41.180Z,78.20
2022-11-29T06:31:53.795Z,93.57
2022-11-29T06:35:05.806Z,55.27
2022-11-29T06:38:22.470Z,72.53
2022-11-29T06:41:27.039Z,51.63
2022-11-29T06:44:34.034Z,39.23
2022-11-29T06:47:46.035Z,39.53
2022-11-29T06:51:01.929Z,42.10
2022-11-29T06:54:25.445Z,36.00
2022-11-29T06:57:44.850Z,37.00
2022-11-29T07:01:04.531Z,31.37
2022-11-29T07:04:46.250Z,34.53
2022-11-29T07:07:51.360Z,32.30
2022-11-29T07:10:56.212Z,33.03
2022-11-29T07:14:00.818Z,33.90
2022-11-29T07:17:22.196Z,35.77
2022-11-29T07:20:37.006Z,35.60
2022-11-29T07:23:53.098Z,36.30
2022-11-29T07:27:07.093Z,32.27
2022-11-29T07:30:16.117Z,42.57
2022-11-29T07:33:35.751Z,41.67
2022-11-29T07:36:50.887Z,40.27
2022-11-29T07:40:04.042Z,47.63
2022-11-29T07:43:27.074Z,44.03
2022-11-29T07:46:30.941Z,40.13
2022-11-29T07:49:36.177Z,44.27
2022-11-29T07:52:39.917Z,39.60
2022-11-29T07:55:43.803Z,43.53
2022-11-29T07:58:47.871Z,39.07
2022-11-29T08:01:51.725Z,40.83
2022-11-29T08:04:57.162Z,36.97
2022-11-29T08:08:01.378Z,35.97
2022-11-29T08:11:12.177Z,35.30
2022-11-29T08:14:15.866Z,35.33
2022-11-29T08:17:19.788Z,39.70
2022-11-29T08:20:25.389Z,36.40
2022-11-29T08:23:29.048Z,41.70
2022-11-29T08:26:32.790Z,38.67
2022-11-29T08:29:36.603Z,38.10
2022-11-29T08:32:40.128Z,36.10
2022-11-29T08:35:45.141Z,37.53
2022-11-29T08:38:50.995Z,37.43
2022-11-29T08:41:56.286Z,40.90
2022-11-29T08:45:00.090Z,37.37
2022-11-29T08:48:03.715Z,40.90
2022-11-29T08:51:08.962Z,34.67
2022-11-29T08:54:14.258Z,37.73
2022-11-29T08:57:39.144Z,37.77
2022-11-29T09:00:47.026Z,38.43
2022-11-29T09:04:07.698Z,41.17
2022-11-29T09:07:13.958Z,42.53
2022-11-29T09:10:17.677Z,56.17
2022-11-29T09:13:21.299Z,35.00
2022-11-29T09:16:28.160Z,39.30
2022-11-29T09:19:31.971Z,37.73
2022-11-29T09:22:36.966Z,50.10
2022-11-29T09:25:40.940Z,39.63
2022-11-29T09:28:44.851Z,45.73
2022-11-29T09:31:48.639Z,44.37
2022-11-29T09:34:52.266Z,47.53
2022-11-29T09:37:57.241Z,49.90
2022-11-29T09:41:16.565Z,46.17
2022-11-29T09:44:32.286Z,48.67
2022-11-29T09:48:12.305Z,44.87
2022-11-29T09:51:29.110Z,61.00
2022-11-29T09:54:49.283Z,98.77
2022-11-29T09:57:56.685Z,50.37
2022-11-29T10:01:07.821Z,58.10
2022-11-29T10:04:20.417Z,45.87
2022-11-29T10:07:34.618Z,56.07
2022-11-29T10:10:45.934Z,52.33
2022-11-29T10:13:57.662Z,46.10
2022-11-29T10:17:13.103Z,45.63
2022-11-29T10:20:21.517Z,52.20
2022-11-29T10:23:32.446Z,44.73
2022-11-29T10:26:38.615Z,45.60
2022-11-29T10:29:42.218Z,48.57
2022-11-29T10:32:50.117Z,66.27
2022-11-29T10:35:59.411Z,53.83
2022-11-29T10:39:13.017Z,43.67
2022-11-29T10:42:40.131Z,54.47
2022-11-29T10:45:50.752Z,64.40
2022-11-29T10:48:55.384Z,70.03
2022-11-29T10:51:59.245Z,48.80
2022-11-29T10:55:03.999Z,44.27
2022-11-29T10:58:17.454Z,56.87
2022-11-29T11:01:21.360Z,52.40
2022-11-29T11:04:35.616Z,44.13
2022-11-29T11:07:40.054Z,42.20
2022-11-29T11:10:58.617Z,47.57
2022-11-29T11:14:20.695Z,45.63
2022-11-29T11:17:27.497Z,51.97
2022-11-29T11:20:33.943Z,51.60
2022-11-29T11:23:43.020Z,53.43
2022-11-29T11:26:47.327Z,73.47
2022-11-29T11:29:54.499Z,56.50
2022-11-29T11:33:20.547Z,52.83
2022-11-29T11:36:27.231Z,49.77
2022-11-29T11:39:33.731Z,60.17
2022-11-29T11:42:42.801Z,74.93
2022-11-29T11:45:55.590Z,64.87
2022-11-29T11:48:59.989Z,52.43
2022-11-29T11:52:07.999Z,62.23
2022-11-29T11:55:31.621Z,74.17
2022-11-29T11:58:40.530Z,56.87
2022-11-29T12:01:45.620Z,122.90
2022-11-29T12:04:49.502Z,81.93
2022-11-29T12:08:07.943Z,85.50
2022-11-29T12:11:17.094Z,61.53
2022-11-29T12:14:33.898Z,66.67
2022-11-29T12:17:45.339Z,65.57
2022-11-29T12:20:57.249Z,73.93
2022-11-29T12:24:17.623Z,63.93
2022-11-29T12:27:21.307Z,67.83
2022-11-29T12:30:25.723Z,54.20
2022-11-29T12:33:46.285Z,56.27
2022-11-29T12:36:58.842Z,60.53
2022-11-29T12:40:14.494Z,88.60
2022-11-29T12:43:37.413Z,71.67
2022-11-29T12:46:45.599Z,84.13
2022-11-29T12:50:05.102Z,81.23
2022-11-29T12:53:29.312Z,77.53
2022-11-29T12:56:45.089Z,84.50
2022-11-29T13:00:10.568Z,63.57
2022-11-29T13:03:25.271Z,59.97
2022-11-29T13:06:42.751Z,70.27
2022-11-29T13:10:18.569Z,98.27
2022-11-29T13:13:36.421Z,78.50
2022-11-29T13:16:56.254Z,75.53
2022-11-29T13:20:10.876Z,74.77
2022-11-29T13:23:45.436Z,60.00
2022-11-29T13:26:54.409Z,74.77
2022-11-29T13:30:01.644Z,64.73
2022-11-29T13:33:17.937Z,59.27
2022-11-29T13:36:36.047Z,57.33
2022-11-29T13:40:02.731Z,55.47
2022-11-29T13:43:19.386Z,51.07
2022-11-29T13:46:35.120Z,57.17
2022-11-29T13:49:58.734Z,66.93
2022-11-29T13:53:07.621Z,57.97
2022-11-29T13:56:43.140Z,57.33
2022-11-29T13:59:51.057Z,59.80
2022-11-29T14:02:56.147Z,63.10
2022-11-29T14:06:18.523Z,62.57
2022-11-29T14:09:29.336Z,71.17
2022-11-29T14:12:41.066Z,66.80
2022-11-29T14:15:45.455Z,66.37
2022-11-29T14:19:22.500Z,64.93
2022-11-29T14:22:26.215Z,69.33
2022-11-29T14:28:55.972Z,76.83
2022-11-29T14:32:01.170Z,80.60
2022-11-29T14:35:18.159Z,75.53
2022-11-29T14:38:31.659Z,79.33
2022-11-29T14:41:55.351Z,75.23
2022-11-29T14:45:04.911Z,73.13
2022-11-29T14:48:28.007Z,79.83
2022-11-29T14:51:34.552Z,83.43
2022-11-29T14:54:55.427Z,84.20
2022-11-29T14:58:22.303Z,78.70
2022-11-29T15:01:27.613Z,84.93
2022-11-29T15:04:36.507Z,82.53
2022-11-29T15:07:45.443Z,82.90
2022-11-29T15:10:53.707Z,81.43
2022-11-29T15:14:06.465Z,100.80
2022-11-29T15:17:27.585Z,79.27
2022-11-29T15:20:51.436Z,79.10
2022-11-29T15:24:03.909Z,94.87
2022-11-29T15:27:07.580Z,96.07
2022-11-29T15:30:28.550Z,102.33
2022-11-29T15:33:37.990Z,128.87
2022-11-29T15:36:45.394Z,185.33
2022-11-29T15:39:49.135Z,93.77
2022-11-29T15:43:00.158Z,90.50
2022-11-29T15:46:04.088Z,80.77
2022-11-29T15:49:22.948Z,84.80
2022-11-29T15:52:31.937Z,85.17
2022-11-29T15:55:35.924Z,88.17
2022-11-29T15:58:40.349Z,75.70
2022-11-29T16:01:47.507Z,79.23
2022-11-29T16:04:59.355Z,78.87
2022-11-29T16:08:08.583Z,88.23
2022-11-29T16:11:21.882Z,80.20
2022-11-29T16:14:29.249Z,70.97
2022-11-29T16:17:36.327Z,86.10
2022-11-29T16:20:41.944Z,81.13
2022-11-29T16:23:46.791Z,77.22
2022-11-29T16:26:52.499Z,85.60
2022-11-29T16:29:57.100Z,78.57
2022-11-29T16:33:03.487Z,79.53
2022-11-29T16:36:18.022Z,87.10
2022-11-29T16:39:25.319Z,82.90
2022-11-29T16:42:31.864Z,77.30
2022-11-29T16:45:38.570Z,84.97
2022-11-29T16:48:42.445Z,95.50
2022-11-29T16:51:49.203Z,94.93
2022-11-29T16:54:53.145Z,105.60
2022-11-29T16:57:56.841Z,92.30
2022-11-29T17:01:01.324Z,101.33
2022-11-29T17:04:05.031Z,84.93
2022-11-29T17:07:19.010Z,81.87
2022-11-29T17:10:26.737Z,85.37
2022-11-29T17:13:30.431Z,88.83
2022-11-29T17:16:34.209Z,88.57
2022-11-29T17:19:38.284Z,87.53
2022-11-29T17:22:43.551Z,88.87
2022-11-29T17:25:56.659Z,85.77
2022-11-29T17:29:00.230Z,83.40
2022-11-29T17:32:03.787Z,89.23
2022-11-29T17:35:08.370Z,100.07
2022-11-29T17:38:13.391Z,94.47
2022-11-29T17:41:22.187Z,95.30
2022-11-29T17:44:25.765Z,91.60
2022-11-29T17:47:29.432Z,82.03
2022-11-29T17:50:33.121Z,88.80
2022-11-29T17:53:38.386Z,90.03
2022-11-29T17:56:42.000Z,86.13
2022-11-29T17:59:45.876Z,90.73
2022-11-29T18:02:49.807Z,84.17
2022-11-29T18:05:53.494Z,85.07
2022-11-29T18:09:00.499Z,103.10
2022-11-29T18:12:04.213Z,84.27
2022-11-29T18:15:08.886Z,86.90
2022-11-29T18:18:12.517Z,92.63
2022-11-29T18:21:16.528Z,99.50
2022-11-29T18:24:23.019Z,81.20
2022-11-29T18:27:26.830Z,86.27
2022-11-29T18:30:30.580Z,83.30
2022-11-29T18:33:34.218Z,80.13
2022-11-29T18:36:43.023Z,78.27
2022-11-29T18:39:48.573Z,87.83
2022-11-29T18:42:52.425Z,77.83
2022-11-29T18:45:56.104Z,83.50
2022-11-29T18:49:01.497Z,82.47
2022-11-29T18:52:06.436Z,93.40
2022-11-29T18:55:11.596Z,88.03
2022-11-29T18:58:15.275Z,86.40
2022-11-29T19:01:21.027Z,81.67
2022-11-29T19:04:24.843Z,86.47
2022-11-29T19:07:29.401Z,86.17
2022-11-29T19:10:34.490Z,88.00
2022-11-29T19:13:38.969Z,77.63
2022-11-29T19:16:45.549Z,81.60
2022-11-29T19:19:49.189Z,83.60
2022-11-29T19:22:57.473Z,87.47
2022-11-29T19:26:06.738Z,85.57
2022-11-29T19:29:11.074Z,91.30
2022-11-29T19:32:14.975Z,85.30
2022-11-29T19:35:18.810Z,85.43
2022-11-29T19:38:22.432Z,86.03
2022-11-29T19:41:29.882Z,84.10
2022-11-29T19:44:54.204Z,96.53
2022-11-29T19:47:57.618Z,80.80
2022-11-29T19:51:01.569Z,97.07
2022-11-29T19:54:08.506Z,85.50
2022-11-29T19:57:13.592Z,88.13
2022-11-29T20:00:19.174Z,97.87
2022-11-29T20:03:22.926Z,79.80
2022-11-29T20:06:30.426Z,76.10
2022-11-29T20:09:34.384Z,89.83
2022-11-29T20:12:39.842Z,100.77
2022-11-29T20:15:43.617Z,85.87
2022-11-29T20:18:51.089Z,127.50
2022-11-29T20:21:55.378Z,114.87
2022-11-29T20:24:59.311Z,111.47
2022-11-29T20:28:06.863Z,94.03
2022-11-29T20:31:13.525Z,107.57
2022-11-29T20:34:18.431Z,110.60
2022-11-29T20:38:11.434Z,82.10
2022-11-29T20:41:26.219Z,82.50
2022-11-29T20:44:39.943Z,87.27
2022-11-29T20:47:54.611Z,117.83
2022-11-29T20:51:03.098Z,95.37
2022-11-29T20:54:06.962Z,163.97
2022-11-29T20:57:10.918Z,91.27
2022-11-29T21:00:18.066Z,100.63
2022-11-29T21:03:23.044Z,88.03
2022-11-29T21:06:27.995Z,80.57
2022-11-29T21:09:32.038Z,110.73
2022-11-29T21:12:36.843Z,96.63
2022-11-29T21:15:43.892Z,83.27
2022-11-29T21:18:51.179Z,108.90
2022-11-29T21:22:13.762Z,91.93
2022-11-29T21:25:27.664Z,82.03
2022-11-29T21:28:39.023Z,80.53
2022-11-29T21:31:44.977Z,84.87
2022-11-29T21:34:48.857Z,87.83
2022-11-29T21:37:58.357Z,80.63
2022-11-29T21:41:02.336Z,81.90
2022-11-29T21:44:07.758Z,85.77
2022-11-29T21:47:13.529Z,84.53
2022-11-29T21:50:17.337Z,80.97
2022-11-29T21:53:21.010Z,83.23
2022-11-29T21:56:24.700Z,86.30
2022-11-29T21:59:28.303Z,77.57
2022-11-29T22:02:33.573Z,86.27
2022-11-29T22:05:37.875Z,87.83
2022-11-29T22:08:43.628Z,83.17
2022-11-29T22:11:47.506Z,86.87
2022-11-29T22:14:51.618Z,85.87
2022-11-29T22:17:57.039Z,86.97
2022-11-29T22:21:06.654Z,80.13
2022-11-29T22:24:11.525Z,83.07
2022-11-29T22:27:18.154Z,79.03
2022-11-29T22:30:22.293Z,93.67
2022-11-29T22:33:27.353Z,86.50
2022-11-29T22:36:31.134Z,90.03
2022-11-29T22:39:34.879Z,83.30
2022-11-29T22:42:39.252Z,77.80
2022-11-29T22:45:42.941Z,85.17
2022-11-29T22:48:52.800Z,88.77
2022-11-29T22:51:56.614Z,92.07
2022-11-29T22:55:04.718Z,93.07
2022-11-29T22:58:08.878Z,99.13
2022-11-29T23:01:15.188Z,86.47
2022-11-29T23:04:20.639Z,91.80
2022-11-29T23:07:24.362Z,91.17
2022-11-29T23:10:27.967Z,87.37
2022-11-29T23:13:32.607Z,81.20
2022-11-29T23:16:36.531Z,90.17
2022-11-29T23:19:41.687Z,82.33
2022-11-29T23:22:45.312Z,92.93
2022-11-29T23:25:50.649Z,88.47
2022-11-29T23:28:55.871Z,92.33
2022-11-29T23:31:59.483Z,102.33
2022-11-29T23:35:04.647Z,97.70
2022-11-29T23:38:08.715Z,89.83
2022-11-29T23:41:13.187Z,89.90
2022-11-29T23:44:16.784Z,93.70
2022-11-29T23:47:20.354Z,96.97
2022-11-29T23:50:25.974Z,93.93
2022-11-29T23:53:30.766Z,93.17
2022-11-29T23:56:35.580Z,87.93
2022-11-29T23:59:39.337Z,85.33
